Time;durP1;ratioP1;P1;durP2;ratioP2;P2;SDS_P1;SDS_P2;PMS_P1;PMS_P2;Temp;Humidity;BMP_temperature;BMP_pressure;BME280_temperature;BME280_humidity;BME280_pressure;Samples;Min_cycle;Max_cycle;Signal;HPM_P1;HPM_P2
2023/05/22 00:01:03;;;;;;;2.05;0.57;;;16.60;99.90;;;;;;5052470;28;20037;-68
2023/05/22 00:03:29;;;;;;;0.60;0.60;;;16.60;99.90;;;;;;5045258;28;20049;-68
2023/05/22 00:05:58;;;;;;;0.40;0.40;;;16.60;99.90;;;;;;5054126;28;20052;-68
2023/05/22 00:08:25;;;;;;;0.40;0.40;;;16.60;99.90;;;;;;5055516;28;20749;-68
2023/05/22 00:10:51;;;;;;;0.55;0.55;;;16.60;99.90;;;;;;5050488;28;20051;-68
2023/05/22 00:13:17;;;;;;;0.45;0.45;;;16.60;99.90;;;;;;5030265;28;20049;-68
2023/05/22 00:15:42;;;;;;;0.30;0.30;;;16.60;99.90;;;;;;5055773;28;20106;-68
2023/05/22 00:18:08;;;;;;;0.30;0.30;;;16.60;99.90;;;;;;5051239;28;20064;-68
2023/05/22 00:20:37;;;;;;;0.20;0.20;;;16.60;99.90;;;;;;5053720;28;20052;-68
2023/05/22 00:23:11;;;;;;;0.30;0.30;;;16.70;99.90;;;;;;5045863;28;20048;-68
2023/05/22 00:25:37;;;;;;;0.55;0.43;;;16.70;99.90;;;;;;5048025;28;20520;-69
2023/05/22 00:28:03;;;;;;;0.50;0.50;;;16.70;99.90;;;;;;5056133;28;20083;-68
2023/05/22 00:30:29;;;;;;;0.30;0.30;;;16.70;99.90;;;;;;5033713;28;20051;-68
2023/05/22 00:32:57;;;;;;;0.43;0.43;;;16.70;99.90;;;;;;5050308;28;20080;-68
2023/05/22 00:35:23;;;;;;;0.55;0.47;;;16.80;99.90;;;;;;5047870;28;20521;-68
2023/05/22 00:37:48;;;;;;;1.45;0.55;;;16.80;99.90;;;;;;5051117;28;20041;-68
2023/05/22 00:40:14;;;;;;;0.68;0.50;;;16.80;99.90;;;;;;5049258;28;20041;-68
2023/05/22 00:42:42;;;;;;;0.90;0.75;;;16.80;99.90;;;;;;5049087;28;20048;-68
2023/05/22 00:45:09;;;;;;;;;;;16.80;99.90;;;;;;5058660;28;20044;-68
2023/05/22 00:47:34;;;;;;;0.40;0.40;;;16.80;99.90;;;;;;5048255;28;19932;-68
2023/05/22 00:50:00;;;;;;;0.35;0.35;;;16.80;99.90;;;;;;5050356;28;20032;-68
2023/05/22 00:52:25;;;;;;;0.20;0.20;;;16.80;99.90;;;;;;5048350;28;20037;-68
2023/05/22 00:54:52;;;;;;;0.30;0.30;;;16.80;99.90;;;;;;5050184;28;20056;-69
2023/05/22 00:57:20;;;;;;;0.43;0.43;;;16.80;99.90;;;;;;5051315;28;20029;-68
2023/05/22 00:59:47;;;;;;;;;;;16.80;99.90;;;;;;5051935;28;20048;-68
2023/05/22 01:02:15;;;;;;;0.40;0.40;;;16.80;99.90;;;;;;5051982;28;20023;-68
2023/05/22 01:04:47;;;;;;;0.32;0.32;;;16.80;99.90;;;;;;5052409;28;20044;-68
2023/05/22 01:07:15;;;;;;;0.40;0.40;;;16.80;99.90;;;;;;5054769;28;20615;-68
2023/05/22 01:09:41;;;;;;;;;;;16.80;99.90;;;;;;5051094;28;20143;-68
2023/05/22 01:12:24;;;;;;;0.30;0.30;;;16.80;99.90;;;;;;5042385;28;19994;-68
2023/05/22 01:15:13;;;;;;;0.40;0.40;;;16.70;99.90;;;;;;5056565;28;20055;-68
2023/05/22 01:17:46;;;;;;;0.40;0.40;;;16.70;99.90;;;;;;5055581;28;20041;-68
2023/05/22 01:20:32;;;;;;;0.60;0.60;;;16.70;99.90;;;;;;5054993;28;20059;-69
2023/05/22 01:23:26;;;;;;;0.68;0.68;;;16.70;99.90;;;;;;5051212;28;20485;-68
2023/05/22 01:26:15;;;;;;;0.60;0.60;;;16.70;99.90;;;;;;5051440;28;20084;-68
2023/05/22 01:28:41;;;;;;;0.47;0.47;;;16.70;99.90;;;;;;5043944;28;20646;-69
2023/05/22 01:31:18;;;;;;;0.75;0.50;;;16.70;99.90;;;;;;5055930;28;20120;-68
2023/05/22 01:34:01;;;;;;;0.60;0.60;;;16.70;99.90;;;;;;5051521;28;20056;-69
2023/05/22 01:36:30;;;;;;;0.30;0.30;;;16.70;99.90;;;;;;5059277;28;20037;-69
2023/05/22 01:39:00;;;;;;;0.50;0.50;;;16.70;99.90;;;;;;5048181;28;20059;-68
2023/05/22 01:41:28;;;;;;;0.50;0.50;;;16.70;99.90;;;;;;5056730;28;20076;-68
2023/05/22 01:43:53;;;;;;;0.63;0.63;;;16.70;99.90;;;;;;5049409;28;20041;-68
2023/05/22 01:46:19;;;;;;;0.70;0.70;;;16.60;99.90;;;;;;5048541;28;20555;-68
2023/05/22 01:48:45;;;;;;;1.27;1.17;;;16.60;99.90;;;;;;5057449;28;20162;-69
2023/05/22 01:51:32;;;;;;;0.40;0.40;;;16.60;99.90;;;;;;5050061;28;20128;-68
2023/05/22 01:54:21;;;;;;;1.35;1.00;;;16.60;99.90;;;;;;5052370;28;20048;-68
2023/05/22 01:56:55;;;;;;;2.10;1.05;;;16.60;99.90;;;;;;5047169;28;20095;-69
2023/05/22 02:00:08;;;;;;;0.50;0.50;;;16.60;99.90;;;;;;5045952;28;20033;-68
2023/05/22 02:02:36;;;;;;;1.00;0.93;;;16.60;99.90;;;;;;5043168;28;20061;-68
2023/05/22 02:05:03;;;;;;;;;;;16.50;99.90;;;;;;5052933;28;20064;-68
2023/05/22 02:07:32;;;;;;;1.08;1.05;;;16.40;99.90;;;;;;5041458;28;19928;-68
2023/05/22 02:09:59;;;;;;;1.95;1.42;;;16.40;99.90;;;;;;5047482;28;20067;-67
2023/05/22 02:12:25;;;;;;;1.05;0.93;;;16.40;99.90;;;;;;5050080;28;20045;-68
2023/05/22 02:14:51;;;;;;;0.85;0.85;;;16.40;99.90;;;;;;5048380;28;20052;-68
2023/05/22 02:17:17;;;;;;;2.60;0.55;;;16.40;99.90;;;;;;5047398;28;20086;-68
2023/05/22 02:19:43;;;;;;;0.40;0.40;;;16.40;99.90;;;;;;5049216;28;20045;-68
2023/05/22 02:22:12;;;;;;;1.42;1.27;;;16.40;99.90;;;;;;5047203;28;20890;-68
2023/05/22 02:24:44;;;;;;;0.40;0.40;;;16.40;99.90;;;;;;5048613;28;20064;-68
2023/05/22 02:27:10;;;;;;;0.45;0.45;;;16.40;99.90;;;;;;5047245;28;20106;-69
2023/05/22 02:29:36;;;;;;;0.60;0.60;;;16.40;99.90;;;;;;5049303;28;20075;-68
2023/05/22 02:32:02;;;;;;;1.80;1.20;;;16.40;99.90;;;;;;5056910;28;20044;-68
2023/05/22 02:34:30;;;;;;;1.45;0.98;;;16.40;99.90;;;;;;5055315;28;20048;-69
2023/05/22 02:36:58;;;;;;;0.30;0.30;;;16.40;99.90;;;;;;5048825;28;20118;-68
2023/05/22 02:39:28;;;;;;;0.70;0.70;;;16.40;99.90;;;;;;5050523;28;20068;-68
2023/05/22 02:41:54;;;;;;;0.98;0.98;;;16.40;99.90;;;;;;5038175;28;20080;-68
2023/05/22 02:44:20;;;;;;;1.27;1.20;;;16.30;99.90;;;;;;5059189;28;20076;-68
2023/05/22 02:46:46;;;;;;;0.55;0.55;;;16.30;99.90;;;;;;5051178;28;20084;-68
2023/05/22 02:49:12;;;;;;;0.52;0.52;;;16.30;99.90;;;;;;5061506;28;20071;-68
2023/05/22 02:51:37;;;;;;;0.57;0.57;;;16.30;99.90;;;;;;5059468;28;20101;-69
2023/05/22 02:54:03;;;;;;;0.52;0.52;;;16.30;99.90;;;;;;5051538;28;20132;-68
2023/05/22 02:56:29;;;;;;;0.85;0.85;;;16.30;99.90;;;;;;5058038;28;20156;-68
2023/05/22 02:58:56;;;;;;;0.30;0.30;;;16.30;99.90;;;;;;5052506;28;20049;-68
2023/05/22 03:01:21;;;;;;;0.65;0.65;;;16.30;99.90;;;;;;5055935;28;20502;-68
2023/05/22 03:03:47;;;;;;;0.30;0.30;;;16.30;99.90;;;;;;5051811;28;20136;-68
2023/05/22 03:06:14;;;;;;;0.30;0.30;;;16.30;99.90;;;;;;5049851;28;20390;-68
2023/05/22 03:08:42;;;;;;;0.25;0.25;;;16.30;99.90;;;;;;5055725;28;20079;-68
2023/05/22 03:11:08;;;;;;;0.50;0.50;;;16.30;99.90;;;;;;5047451;28;20097;-69
2023/05/22 03:13:35;;;;;;;0.40;0.40;;;16.30;99.90;;;;;;5050181;28;20116;-68
2023/05/22 03:16:01;;;;;;;0.73;0.73;;;16.30;99.90;;;;;;5055400;28;20470;-68
2023/05/22 03:18:27;;;;;;;0.30;0.30;;;16.30;99.90;;;;;;5051268;28;20725;-68
2023/05/22 03:20:53;;;;;;;1.92;0.73;;;16.30;99.90;;;;;;5049070;28;20518;-68
2023/05/22 03:23:23;;;;;;;0.60;0.60;;;16.30;99.90;;;;;;5054184;28;20041;-68
2023/05/22 03:25:50;;;;;;;0.40;0.40;;;16.30;99.90;;;;;;5029867;28;20060;-68
2023/05/22 03:28:15;;;;;;;0.60;0.60;;;16.30;99.90;;;;;;5050788;28;20537;-68
2023/05/22 03:30:41;;;;;;;0.40;0.40;;;16.30;99.90;;;;;;5058935;28;20123;-68
2023/05/22 03:33:07;;;;;;;0.77;0.75;;;16.30;99.90;;;;;;5052065;28;20146;-68
2023/05/22 03:35:33;;;;;;;0.50;0.50;;;16.30;99.90;;;;;;5058842;28;20040;-67
2023/05/22 03:37:58;;;;;;;0.40;0.40;;;16.30;99.90;;;;;;5051338;28;20132;-68
2023/05/22 03:40:24;;;;;;;0.70;0.70;;;16.30;99.90;;;;;;5054630;28;20048;-68
2023/05/22 03:42:50;;;;;;;0.70;0.70;;;16.30;99.90;;;;;;5047525;28;20045;-68
2023/05/22 03:45:15;;;;;;;1.23;1.13;;;16.30;99.90;;;;;;5054518;28;20132;-68
2023/05/22 03:47:41;;;;;;;1.27;1.20;;;16.20;99.90;;;;;;5057858;28;20033;-68
2023/05/22 03:50:07;;;;;;;0.40;0.40;;;16.20;99.90;;;;;;5051590;28;20037;-68
2023/05/22 03:52:33;;;;;;;2.13;2.03;;;16.20;99.90;;;;;;5058737;28;20057;-68
2023/05/22 03:54:59;;;;;;;1.10;1.10;;;16.20;99.90;;;;;;5043894;28;20057;-68
2023/05/22 03:57:24;;;;;;;1.38;1.27;;;16.20;99.90;;;;;;5056868;28;20473;-68
2023/05/22 03:59:50;;;;;;;0.82;0.82;;;16.20;99.90;;;;;;5046946;28;20095;-68
2023/05/22 04:02:16;;;;;;;0.98;0.98;;;16.20;99.90;;;;;;5054018;28;20187;-69
2023/05/22 04:04:45;;;;;;;1.50;1.40;;;16.20;99.90;;;;;;5048689;28;20141;-68
2023/05/22 04:07:12;;;;;;;0.95;0.95;;;16.20;99.90;;;;;;5050531;28;20789;-69
2023/05/22 04:09:38;;;;;;;1.37;1.27;;;16.20;99.90;;;;;;5034809;28;20048;-68
2023/05/22 04:12:04;;;;;;;2.53;1.85;;;16.20;99.90;;;;;;5048831;28;20561;-69
2023/05/22 04:14:30;;;;;;;1.88;1.73;;;16.30;99.90;;;;;;5048461;28;20152;-69
2023/05/22 04:16:55;;;;;;;1.27;1.17;;;16.30;99.90;;;;;;5051158;28;20041;-68
2023/05/22 04:19:21;;;;;;;1.65;1.55;;;16.30;99.90;;;;;;5042734;28;20033;-69
2023/05/22 04:21:47;;;;;;;4.03;0.90;;;16.30;99.90;;;;;;5049322;28;20040;-68
2023/05/22 04:24:13;;;;;;;0.80;0.80;;;16.30;99.90;;;;;;5050817;28;20767;-69
2023/05/22 04:26:39;;;;;;;7.35;1.20;;;16.40;99.90;;;;;;5053040;28;20111;-69
2023/05/22 04:29:09;;;;;;;1.25;1.25;;;16.40;99.90;;;;;;5050548;28;20060;-68
2023/05/22 04:31:37;;;;;;;1.05;1.05;;;16.40;99.90;;;;;;5042169;28;20053;-68
2023/05/22 04:34:04;;;;;;;1.40;1.25;;;16.40;99.90;;;;;;5047289;28;20033;-69
2023/05/22 04:36:29;;;;;;;0.30;0.30;;;16.40;99.90;;;;;;5051385;28;20095;-69
2023/05/22 04:38:55;;;;;;;2.78;1.85;;;16.40;99.90;;;;;;5055527;28;20048;-69
2023/05/22 04:41:25;;;;;;;0.52;0.52;;;16.50;99.90;;;;;;5051746;28;20211;-69
2023/05/22 04:43:51;;;;;;;0.85;0.60;;;16.50;99.90;;;;;;5051440;28;20127;-69
2023/05/22 04:46:18;;;;;;;0.73;0.73;;;16.50;99.90;;;;;;5045976;28;20053;-69
2023/05/22 04:48:44;;;;;;;1.38;1.38;;;16.50;99.90;;;;;;5046221;28;20567;-69
2023/05/22 04:51:10;;;;;;;1.23;1.23;;;16.50;99.90;;;;;;5053459;28;20049;-69
2023/05/22 04:53:37;;;;;;;1.27;1.13;;;16.50;99.90;;;;;;5045633;28;20052;-69
2023/05/22 04:56:03;;;;;;;2.08;1.60;;;16.50;99.90;;;;;;5051445;28;20123;-69
2023/05/22 04:58:29;;;;;;;1.17;1.17;;;16.50;99.90;;;;;;5055427;28;20072;-69
2023/05/22 05:00:56;;;;;;;1.48;1.38;;;16.50;99.90;;;;;;5053521;28;20134;-69
2023/05/22 05:03:24;;;;;;;0.50;0.50;;;16.50;99.90;;;;;;5052023;28;20049;-69
2023/05/22 05:05:51;;;;;;;1.30;0.82;;;16.60;99.90;;;;;;5046501;28;20056;-69
2023/05/22 05:08:16;;;;;;;0.80;0.80;;;16.60;99.90;;;;;;5051021;28;20053;-69
2023/05/22 05:10:42;;;;;;;1.50;1.40;;;16.60;99.90;;;;;;5055217;28;21383;-69
2023/05/22 05:13:08;;;;;;;1.52;1.20;;;16.60;99.90;;;;;;5046256;28;20043;-69
2023/05/22 05:15:34;;;;;;;1.77;1.67;;;16.60;99.90;;;;;;5049269;28;20381;-69
2023/05/22 05:18:00;;;;;;;2.00;1.90;;;16.60;99.90;;;;;;5049431;28;20045;-69
2023/05/22 05:20:26;;;;;;;2.15;1.95;;;16.60;99.90;;;;;;5050651;28;20439;-69
2023/05/22 05:22:52;;;;;;;2.67;2.15;;;16.60;99.90;;;;;;5048225;28;20120;-69
2023/05/22 05:25:18;;;;;;;5.63;2.35;;;16.50;99.90;;;;;;5042165;28;20125;-69
2023/05/22 05:27:43;;;;;;;2.17;1.90;;;16.60;99.90;;;;;;5048533;28;20104;-69
2023/05/22 05:30:09;;;;;;;2.15;1.90;;;16.60;99.90;;;;;;5046674;28;20474;-68
2023/05/22 05:32:35;;;;;;;2.13;2.03;;;16.60;99.90;;;;;;5047285;28;20078;-69
2023/05/22 05:35:01;;;;;;;1.73;1.45;;;16.50;99.90;;;;;;5050220;28;20056;-69
2023/05/22 05:37:28;;;;;;;2.60;2.22;;;16.50;99.90;;;;;;5046125;28;20053;-69
2023/05/22 05:39:56;;;;;;;2.20;2.10;;;16.50;99.90;;;;;;5049851;28;20049;-69
2023/05/22 05:42:22;;;;;;;3.25;2.25;;;16.50;99.90;;;;;;5043420;28;20055;-69
2023/05/22 05:44:47;;;;;;;1.73;1.63;;;16.50;99.90;;;;;;5047457;28;20096;-68
2023/05/22 05:47:13;;;;;;;2.38;2.17;;;16.50;99.90;;;;;;5055965;28;20048;-69
2023/05/22 05:49:39;;;;;;;1.52;1.48;;;16.50;99.90;;;;;;5047713;28;20083;-69
2023/05/22 05:52:05;;;;;;;3.13;2.90;;;16.50;99.90;;;;;;5053364;28;20052;-68
2023/05/22 05:54:30;;;;;;;1.50;1.40;;;16.50;99.90;;;;;;5049054;28;20058;-68
2023/05/22 05:56:56;;;;;;;2.80;2.17;;;16.50;99.90;;;;;;5050735;28;20056;-68
2023/05/22 05:59:23;;;;;;;1.95;1.85;;;16.50;99.90;;;;;;5047497;28;20802;-69
2023/05/22 06:01:49;;;;;;;4.28;2.90;;;16.50;99.90;;;;;;5049099;28;20053;-69
2023/05/22 06:04:15;;;;;;;1.58;1.42;;;16.50;99.90;;;;;;5053000;28;20404;-69
2023/05/22 06:06:41;;;;;;;5.35;2.50;;;16.40;99.90;;;;;;5054594;28;20053;-69
2023/05/22 06:09:08;;;;;;;1.58;1.48;;;16.40;99.90;;;;;;5052824;28;20123;-69
2023/05/22 06:11:34;;;;;;;0.95;0.95;;;16.40;99.90;;;;;;5053731;28;20469;-69
2023/05/22 06:14:04;;;;;;;0.95;0.95;;;16.40;99.90;;;;;;5050093;28;20045;-69
2023/05/22 06:16:30;;;;;;;2.55;2.35;;;16.40;99.90;;;;;;5045845;28;20048;-69
2023/05/22 06:18:57;;;;;;;2.60;2.33;;;16.40;99.90;;;;;;5053849;28;20505;-69
2023/05/22 06:21:23;;;;;;;1.63;1.52;;;16.40;99.90;;;;;;5048926;28;20040;-69
2023/05/22 06:23:49;;;;;;;1.85;1.75;;;16.40;99.90;;;;;;5048285;28;20041;-69
2023/05/22 06:26:16;;;;;;;3.05;1.73;;;16.50;99.90;;;;;;5049360;28;20699;-69
2023/05/22 06:28:42;;;;;;;2.17;1.48;;;16.50;99.90;;;;;;5043640;28;20055;-69
2023/05/22 06:31:08;;;;;;;2.45;1.90;;;16.50;99.90;;;;;;5051700;28;20057;-69
2023/05/22 06:33:35;;;;;;;2.10;2.00;;;16.50;99.90;;;;;;5053767;28;20106;-69
2023/05/22 06:36:05;;;;;;;2.00;1.90;;;16.50;99.90;;;;;;5054791;28;20044;-69
2023/05/22 06:38:31;;;;;;;4.15;1.77;;;16.50;99.90;;;;;;5057222;28;20036;-69
2023/05/22 06:40:57;;;;;;;1.65;1.55;;;16.50;99.90;;;;;;5054110;28;20516;-69
2023/05/22 06:43:23;;;;;;;5.25;2.17;;;16.50;99.90;;;;;;5045681;28;20562;-69
2023/05/22 06:45:48;;;;;;;2.13;1.35;;;16.50;99.90;;;;;;5045507;28;20459;-69
2023/05/22 06:48:14;;;;;;;1.52;1.42;;;16.50;99.90;;;;;;5052091;28;20124;-69
2023/05/22 06:50:40;;;;;;;4.10;2.05;;;16.50;99.90;;;;;;5055048;28;20041;-69
2023/05/22 06:53:06;;;;;;;2.45;2.25;;;16.60;99.90;;;;;;5042233;28;20068;-69
2023/05/22 06:55:32;;;;;;;2.70;2.50;;;16.50;99.90;;;;;;5053596;28;20110;-69
2023/05/22 06:57:57;;;;;;;2.30;2.17;;;16.50;99.90;;;;;;5050799;28;20041;-69
2023/05/22 07:00:24;;;;;;;7.43;5.32;;;16.50;99.90;;;;;;5052237;28;20033;-69
2023/05/22 07:02:49;;;;;;;3.08;2.72;;;16.40;99.90;;;;;;5051304;28;20047;-69
2023/05/22 07:05:15;;;;;;;3.25;2.95;;;16.40;99.90;;;;;;5049194;28;20044;-69
2023/05/22 07:07:42;;;;;;;6.65;4.75;;;16.40;99.90;;;;;;5054388;28;20080;-69
2023/05/22 07:10:08;;;;;;;4.53;4.13;;;16.40;99.90;;;;;;5057990;28;20585;-69
2023/05/22 07:12:34;;;;;;;4.22;4.00;;;16.50;99.90;;;;;;5049395;28;20049;-69
2023/05/22 07:15:00;;;;;;;3.25;3.05;;;16.60;99.90;;;;;;5050477;28;20552;-69
2023/05/22 07:17:26;;;;;;;5.20;3.65;;;16.70;99.90;;;;;;5042069;28;20482;-68
2023/05/22 07:19:52;;;;;;;5.80;3.50;;;16.80;99.90;;;;;;5048765;28;20060;-68
2023/05/22 07:22:17;;;;;;;9.48;3.53;;;17.00;99.90;;;;;;5043413;28;20405;-68
2023/05/22 07:24:43;;;;;;;3.97;3.17;;;17.10;99.90;;;;;;5048926;28;20457;-68
2023/05/22 07:27:10;;;;;;;2.15;1.75;;;17.20;99.90;;;;;;5049230;28;20127;-68
2023/05/22 07:29:36;;;;;;;3.17;2.97;;;17.40;99.90;;;;;;5047537;28;20044;-69
2023/05/22 07:32:02;;;;;;;4.13;3.67;;;17.40;99.90;;;;;;5051991;28;20064;-70
2023/05/22 07:34:31;;;;;;;2.53;2.33;;;17.40;99.90;;;;;;5046247;28;20052;-70
2023/05/22 07:36:58;;;;;;;5.63;4.65;;;17.40;99.90;;;;;;5055589;28;20059;-70
2023/05/22 07:39:23;;;;;;;3.72;3.30;;;17.40;99.90;;;;;;5052037;28;20044;-70
2023/05/22 07:41:49;;;;;;;4.43;4.03;;;17.50;99.90;;;;;;5054138;28;20627;-70
2023/05/22 07:44:15;;;;;;;5.85;5.25;;;17.70;99.90;;;;;;5051965;28;20063;-70
2023/05/22 07:46:40;;;;;;;3.20;2.95;;;17.80;99.90;;;;;;5050877;28;20409;-70
2023/05/22 07:49:06;;;;;;;5.22;4.82;;;17.80;99.90;;;;;;5053174;28;20136;-70
2023/05/22 07:51:32;;;;;;;5.35;4.47;;;17.70;99.90;;;;;;5046008;28;20486;-70
2023/05/22 07:53:58;;;;;;;5.63;3.20;;;17.70;99.90;;;;;;5053475;28;20048;-70
2023/05/22 07:56:24;;;;;;;4.20;3.88;;;17.60;99.90;;;;;;5057682;28;20080;-70
2023/05/22 07:58:50;;;;;;;2.83;2.63;;;17.60;99.90;;;;;;5055605;28;20072;-70
2023/05/22 08:01:17;;;;;;;3.92;3.63;;;17.50;99.90;;;;;;5054753;28;20040;-70
2023/05/22 08:03:42;;;;;;;3.03;2.75;;;17.50;99.90;;;;;;5051910;28;20143;-70
2023/05/22 08:06:08;;;;;;;4.13;2.53;;;17.50;99.90;;;;;;5060496;28;20131;-70
2023/05/22 08:08:34;;;;;;;4.70;4.10;;;17.50;99.90;;;;;;5043042;28;20486;-70
2023/05/22 08:10:59;;;;;;;2.38;2.15;;;17.50;99.90;;;;;;5054068;28;20041;-71
2023/05/22 08:13:25;;;;;;;3.22;2.22;;;17.50;99.90;;;;;;5047453;28;20525;-70
2023/05/22 08:15:51;;;;;;;4.13;3.15;;;17.60;99.90;;;;;;5050304;28;20055;-70
2023/05/22 08:18:16;;;;;;;2.95;2.45;;;17.60;99.90;;;;;;5051976;28;20037;-70
2023/05/22 08:20:42;;;;;;;3.08;2.45;;;17.70;99.90;;;;;;5047502;28;20674;-70
2023/05/22 08:23:08;;;;;;;2.30;2.10;;;17.80;99.90;;;;;;5055040;28;20104;-70
2023/05/22 08:25:34;;;;;;;4.22;2.90;;;17.70;99.90;;;;;;5051220;28;20173;-70
2023/05/22 08:28:00;;;;;;;1.73;1.40;;;17.80;99.90;;;;;;5049123;28;20045;-70
2023/05/22 08:30:26;;;;;;;2.90;2.65;;;17.80;99.90;;;;;;5059323;28;20044;-70
2023/05/22 08:32:52;;;;;;;6.70;5.78;;;17.90;99.90;;;;;;5049398;28;20498;-70
2023/05/22 08:35:17;;;;;;;2.63;2.42;;;17.90;99.90;;;;;;5038595;28;20048;-70
2023/05/22 08:37:43;;;;;;;3.15;2.47;;;18.00;99.90;;;;;;5051004;28;20083;-70
2023/05/22 08:40:13;;;;;;;2.90;2.78;;;18.00;99.90;;;;;;5054083;28;20041;-70
2023/05/22 08:42:40;;;;;;;3.80;2.00;;;18.00;99.90;;;;;;5059123;28;20051;-70
2023/05/22 08:45:06;;;;;;;1.58;1.48;;;18.10;99.90;;;;;;5042079;28;20053;-70
2023/05/22 08:47:35;;;;;;;2.53;2.05;;;18.20;99.90;;;;;;5058989;28;20036;-70
2023/05/22 08:50:02;;;;;;;2.50;2.15;;;18.20;99.90;;;;;;5042107;28;20048;-70
2023/05/22 08:52:46;;;;;;;1.40;1.35;;;18.20;99.90;;;;;;5056064;28;20032;-70
2023/05/22 08:55:12;;;;;;;1.15;1.15;;;18.20;99.90;;;;;;5042698;28;20443;-70
2023/05/22 08:57:39;;;;;;;2.05;1.75;;;18.30;99.90;;;;;;5056023;28;20079;-69
2023/05/22 09:00:07;;;;;;;1.67;1.58;;;18.20;99.90;;;;;;5048288;28;20128;-71
2023/05/22 09:02:32;;;;;;;1.75;1.65;;;18.30;99.90;;;;;;5044886;28;20107;-71
2023/05/22 09:05:00;;;;;;;6.13;3.90;;;18.30;99.90;;;;;;5046845;28;20037;-71
2023/05/22 09:07:26;;;;;;;;;;;18.30;99.90;;;;;;5052828;28;20056;-71
2023/05/22 09:09:52;;;;;;;3.83;3.42;;;18.30;99.90;;;;;;5048781;28;19974;-71
2023/05/22 09:12:18;;;;;;;4.60;2.13;;;18.30;99.90;;;;;;5050525;28;20048;-71
2023/05/22 09:14:44;;;;;;;2.15;2.03;;;18.30;99.90;;;;;;5047096;28;20077;-70
2023/05/22 09:17:14;;;;;;;2.45;1.83;;;18.30;99.90;;;;;;5044508;28;20054;-70
2023/05/22 09:19:46;;;;;;;2.50;1.58;;;18.40;99.90;;;;;;5050337;28;20052;-70
2023/05/22 09:22:13;;;;;;;1.02;1.02;;;18.40;99.90;;;;;;5034491;28;20487;-70
2023/05/22 09:24:41;;;;;;;0.98;0.98;;;18.40;99.90;;;;;;5046714;28;20041;-70
2023/05/22 09:27:07;;;;;;;0.98;0.98;;;18.50;99.90;;;;;;5051025;28;20057;-70
2023/05/22 09:29:55;;;;;;;0.70;0.70;;;18.60;99.90;;;;;;5052604;28;20509;-70
2023/05/22 09:32:21;;;;;;;0.98;0.98;;;18.60;99.90;;;;;;5042382;28;20068;-70
2023/05/22 09:34:47;;;;;;;2.03;1.92;;;18.60;99.90;;;;;;5057633;28;20053;-70
2023/05/22 09:37:13;;;;;;;2.03;1.92;;;18.60;99.90;;;;;;5050067;28;20047;-70
2023/05/22 09:39:41;;;;;;;1.95;1.85;;;18.60;99.90;;;;;;5047964;28;20049;-70
2023/05/22 09:42:08;;;;;;;;;;;18.60;99.90;;;;;;5051126;28;20562;-70
2023/05/22 09:44:34;;;;;;;1.27;1.23;;;18.50;99.90;;;;;;5053495;28;19970;-70
2023/05/22 09:47:00;;;;;;;3.67;2.33;;;18.50;99.90;;;;;;5046428;28;20062;-70
2023/05/22 09:49:25;;;;;;;4.53;2.42;;;18.50;99.90;;;;;;5054061;28;20513;-70
2023/05/22 09:51:53;;;;;;;3.08;2.92;;;18.50;99.90;;;;;;5050236;28;20411;-70
2023/05/22 09:54:20;;;;;;;;;;;18.40;99.90;;;;;;5052486;28;20056;-70
2023/05/22 09:56:52;;;;;;;4.63;3.17;;;18.40;99.90;;;;;;5050021;28;20323;-70
2023/05/22 09:59:28;;;;;;;5.28;4.78;;;18.30;99.90;;;;;;5053870;28;20053;-70
2023/05/22 10:01:55;;;;;;;4.25;2.83;;;18.40;99.90;;;;;;5047462;28;20068;-71
2023/05/22 10:04:22;;;;;;;4.18;2.78;;;18.40;99.90;;;;;;5053234;28;20041;-70
2023/05/22 10:06:53;;;;;;;4.72;4.32;;;18.40;99.90;;;;;;5048553;28;20095;-70
2023/05/22 10:09:24;;;;;;;3.05;2.85;;;18.50;99.90;;;;;;5056211;28;20095;-70
2023/05/22 10:11:53;;;;;;;5.88;5.32;;;18.50;99.90;;;;;;5049930;28;20045;-70
2023/05/22 10:14:19;;;;;;;4.70;3.90;;;18.60;99.90;;;;;;5045368;28;20049;-70
2023/05/22 10:16:46;;;;;;;7.18;4.20;;;18.70;99.90;;;;;;5052725;28;20066;-70
2023/05/22 10:19:12;;;;;;;4.65;4.20;;;18.70;99.90;;;;;;5046834;28;20055;-70
2023/05/22 10:21:40;;;;;;;10.18;6.03;;;18.70;99.90;;;;;;5052711;28;20863;-70
2023/05/22 10:24:07;;;;;;;5.05;4.57;;;18.70;99.90;;;;;;5045321;28;20044;-70
2023/05/22 10:26:33;;;;;;;3.72;3.40;;;18.80;99.90;;;;;;5054220;28;20045;-70
2023/05/22 10:29:13;;;;;;;2.70;2.50;;;18.90;99.90;;;;;;5048349;28;20211;-70
2023/05/22 10:31:56;;;;;;;3.50;3.05;;;19.00;99.90;;;;;;5053245;28;20160;-70
2023/05/22 10:34:46;;;;;;;3.08;2.88;;;18.90;99.90;;;;;;5046061;28;20056;-71
2023/05/22 10:37:41;;;;;;;6.55;6.05;;;19.00;99.90;;;;;;5047107;28;20081;-71
2023/05/22 10:40:08;;;;;;;3.72;3.42;;;18.90;99.90;;;;;;5040442;28;20080;-70
2023/05/22 10:42:36;;;;;;;4.82;4.45;;;18.90;99.90;;;;;;5038307;28;20406;-71
2023/05/22 10:45:05;;;;;;;2.95;2.75;;;19.00;99.90;;;;;;5048721;28;20060;-70
2023/05/22 10:47:34;;;;;;;3.80;3.15;;;18.90;99.90;;;;;;5051270;28;20040;-70
2023/05/22 10:50:10;;;;;;;4.22;3.85;;;19.00;99.90;;;;;;5046696;28;20791;-70
2023/05/22 10:52:36;;;;;;;4.72;4.40;;;19.00;99.90;;;;;;5046212;28;20048;-71
2023/05/22 10:55:07;;;;;;;3.35;2.95;;;19.10;99.90;;;;;;5051625;28;20057;-70
2023/05/22 10:57:36;;;;;;;5.30;4.30;;;19.20;99.90;;;;;;5051260;28;20537;-71
2023/05/22 11:00:10;;;;;;;4.00;2.75;;;19.50;99.90;;;;;;5042704;28;20090;-70
2023/05/22 11:02:39;;;;;;;6.75;3.90;;;19.70;99.90;;;;;;5052769;28;20410;-70
2023/05/22 11:05:20;;;;;;;2.70;2.50;;;19.70;99.90;;;;;;5052297;28;20041;-70
2023/05/22 11:07:46;;;;;;;7.15;2.03;;;19.80;99.90;;;;;;5056970;28;20044;-70
2023/05/22 11:10:12;;;;;;;2.92;2.72;;;20.00;99.90;;;;;;5052921;28;20599;-70
2023/05/22 11:12:38;;;;;;;5.47;4.95;;;20.30;99.90;;;;;;5051888;28;20045;-70
2023/05/22 11:15:08;;;;;;;5.65;5.20;;;20.40;99.90;;;;;;5053599;28;20074;-70
2023/05/22 11:17:41;;;;;;;2.47;2.38;;;20.50;99.90;;;;;;5056278;28;20148;-71
2023/05/22 11:20:19;;;;;;;3.47;3.25;;;20.60;99.90;;;;;;5049868;28;20040;-70
2023/05/22 11:23:06;;;;;;;3.25;3.05;;;20.70;99.90;;;;;;5051396;28;20529;-70
2023/05/22 11:25:33;;;;;;;3.78;2.65;;;20.80;99.90;;;;;;5054269;28;20044;-70
2023/05/22 11:28:04;;;;;;;3.53;3.22;;;20.90;99.90;;;;;;5029709;28;20048;-70
2023/05/22 11:30:30;;;;;;;3.33;3.05;;;21.10;99.90;;;;;;5058498;28;20048;-71
2023/05/22 11:32:58;;;;;;;2.88;2.67;;;21.30;99.90;;;;;;5047170;28;20041;-70
2023/05/22 11:35:24;;;;;;;4.63;2.63;;;21.40;99.90;;;;;;5058351;28;20041;-70
2023/05/22 11:37:52;;;;;;;4.32;3.85;;;21.60;99.90;;;;;;5053937;28;20060;-70
2023/05/22 11:40:25;;;;;;;5.15;3.30;;;21.80;99.90;;;;;;5055176;28;20044;-70
2023/05/22 11:42:55;;;;;;;3.70;3.15;;;21.90;99.90;;;;;;5040365;28;20056;-70
2023/05/22 11:45:21;;;;;;;1.80;1.70;;;21.90;99.90;;;;;;5049760;28;20045;-70
2023/05/22 11:47:50;;;;;;;1.70;1.60;;;22.00;99.90;;;;;;5052074;28;20060;-71
2023/05/22 11:50:15;;;;;;;2.35;2.10;;;22.10;99.90;;;;;;5050729;28;20072;-70
2023/05/22 11:52:42;;;;;;;5.50;5.03;;;22.20;99.90;;;;;;5057081;28;20497;-71
2023/05/22 11:55:09;;;;;;;4.18;3.75;;;22.20;99.90;;;;;;5049608;28;20588;-70
2023/05/22 11:57:36;;;;;;;6.05;5.43;;;22.20;99.90;;;;;;5054050;28;20483;-71
2023/05/22 12:00:05;;;;;;;5.72;5.22;;;22.10;99.90;;;;;;5044546;28;20536;-71
2023/05/22 12:02:31;;;;;;;7.93;6.03;;;22.00;99.90;;;;;;5051549;28;20048;-71
2023/05/22 12:04:57;;;;;;;8.27;6.55;;;22.00;99.90;;;;;;5054910;28;20700;-71
2023/05/22 12:07:24;;;;;;;8.40;7.55;;;22.10;99.90;;;;;;5050586;28;20490;-71
2023/05/22 12:09:50;;;;;;;5.50;5.00;;;22.10;99.90;;;;;;5051486;28;20052;-70
2023/05/22 12:12:16;;;;;;;4.80;4.28;;;22.30;99.90;;;;;;5049161;28;20053;-71
2023/05/22 12:14:45;;;;;;;7.68;6.93;;;22.40;99.90;;;;;;5048206;28;20045;-71
2023/05/22 12:17:12;;;;;;;8.85;6.25;;;22.30;99.90;;;;;;5055244;28;20076;-71
2023/05/22 12:19:41;;;;;;;6.32;5.72;;;22.30;99.90;;;;;;5045636;28;20165;-71
2023/05/22 12:22:10;;;;;;;4.53;4.15;;;22.30;99.90;;;;;;5051634;28;20049;-70
2023/05/22 12:24:40;;;;;;;5.43;4.93;;;22.50;99.90;;;;;;5045680;28;20051;-71
2023/05/22 12:27:10;;;;;;;5.60;5.15;;;22.60;99.90;;;;;;5052065;28;20084;-71
2023/05/22 12:29:37;;;;;;;6.85;6.25;;;22.70;99.90;;;;;;5047173;28;20045;-70
2023/05/22 12:32:06;;;;;;;3.65;3.38;;;22.90;99.90;;;;;;5048681;28;20041;-70
2023/05/22 12:34:40;;;;;;;2.90;2.67;;;23.10;99.90;;;;;;5040181;28;20734;-70
2023/05/22 12:37:20;;;;;;;5.32;4.75;;;23.30;99.90;;;;;;5055350;28;20044;-70
2023/05/22 12:40:00;;;;;;;7.10;5.80;;;23.50;99.90;;;;;;5053778;28;20095;-70
2023/05/22 12:42:26;;;;;;;5.93;5.43;;;23.50;99.90;;;;;;5046227;28;21249;-70
2023/05/22 12:44:53;;;;;;;11.73;5.55;;;23.40;99.90;;;;;;5048720;28;20049;-70
2023/05/22 12:47:19;;;;;;;6.20;5.70;;;23.50;99.90;;;;;;5048739;28;20087;-70
2023/05/22 12:49:45;;;;;;;4.80;4.40;;;23.50;99.90;;;;;;5046529;28;20060;-70
2023/05/22 12:52:11;;;;;;;5.35;4.85;;;23.70;99.90;;;;;;5050145;28;20037;-71